sensor_id;sensor_type;location;lat;lon;timestamp;P1;durP1;ratioP1;P2;durP2;ratioP2
13255;SDS011;37913;48.370;10.930;2023-04-24T00:01:13;79.28;;;33.70;;
13255;SDS011;37913;48.370;10.930;2023-04-24T00:03:42;76.70;;;33.83;;
13255;SDS011;37913;48.370;10.930;2023-04-24T00:06:10;82.47;;;34.22;;
13255;SDS011;37913;48.370;10.930;2023-04-24T00:08:37;65.63;;;30.83;;
13255;SDS011;37913;48.370;10.930;2023-04-24T00:11:04;75.28;;;32.83;;
13255;SDS011;37913;48.370;10.930;2023-04-24T00:13:32;71.68;;;31.95;;
13255;SDS011;37913;48.370;10.930;2023-04-24T00:15:59;74.65;;;32.75;;
13255;SDS011;37913;48.370;10.930;2023-04-24T00:18:26;76.00;;;32.88;;
13255;SDS011;37913;48.370;10.930;2023-04-24T00:20:54;75.20;;;32.72;;
13255;SDS011;37913;48.370;10.930;2023-04-24T00:23:22;75.43;;;32.58;;
13255;SDS011;37913;48.370;10.930;2023-04-24T00:25:49;75.90;;;32.92;;
13255;SDS011;37913;48.370;10.930;2023-04-24T00:28:16;84.18;;;34.72;;
13255;SDS011;37913;48.370;10.930;2023-04-24T00:30:42;75.25;;;32.85;;
13255;SDS011;37913;48.370;10.930;2023-04-24T00:33:09;77.97;;;33.38;;
13255;SDS011;37913;48.370;10.930;2023-04-24T00:35:36;82.43;;;33.75;;
13255;SDS011;37913;48.370;10.930;2023-04-24T00:38:03;81.15;;;33.85;;
13255;SDS011;37913;48.370;10.930;2023-04-24T00:40:31;80.18;;;33.80;;
13255;SDS011;37913;48.370;10.930;2023-04-24T00:42:58;78.20;;;33.70;;
13255;SDS011;37913;48.370;10.930;2023-04-24T00:45:25;72.57;;;32.00;;
13255;SDS011;37913;48.370;10.930;2023-04-24T00:47:52;76.68;;;33.15;;
13255;SDS011;37913;48.370;10.930;2023-04-24T00:50:20;79.05;;;33.60;;
13255;SDS011;37913;48.370;10.930;2023-04-24T00:52:48;76.47;;;33.58;;
13255;SDS011;37913;48.370;10.930;2023-04-24T00:55:15;81.60;;;33.78;;
13255;SDS011;37913;48.370;10.930;2023-04-24T00:57:44;79.65;;;33.65;;
13255;SDS011;37913;48.370;10.930;2023-04-24T01:00:14;79.07;;;33.67;;
13255;SDS011;37913;48.370;10.930;2023-04-24T01:02:41;79.45;;;33.67;;
13255;SDS011;37913;48.370;10.930;2023-04-24T01:05:10;79.53;;;33.75;;
13255;SDS011;37913;48.370;10.930;2023-04-24T01:07:38;75.05;;;32.90;;
13255;SDS011;37913;48.370;10.930;2023-04-24T01:10:09;79.15;;;33.35;;
13255;SDS011;37913;48.370;10.930;2023-04-24T01:12:37;78.15;;;33.00;;
13255;SDS011;37913;48.370;10.930;2023-04-24T01:15:06;83.25;;;34.55;;
13255;SDS011;37913;48.370;10.930;2023-04-24T01:17:33;82.55;;;34.38;;
13255;SDS011;37913;48.370;10.930;2023-04-24T01:20:00;69.75;;;31.50;;
13255;SDS011;37913;48.370;10.930;2023-04-24T01:22:32;83.10;;;34.38;;
13255;SDS011;37913;48.370;10.930;2023-04-24T01:24:59;101.18;;;37.17;;
13255;SDS011;37913;48.370;10.930;2023-04-24T01:27:26;81.63;;;34.10;;
13255;SDS011;37913;48.370;10.930;2023-04-24T01:29:53;76.53;;;32.95;;
13255;SDS011;37913;48.370;10.930;2023-04-24T01:32:20;76.97;;;32.90;;
13255;SDS011;37913;48.370;10.930;2023-04-24T01:34:48;87.63;;;34.80;;
13255;SDS011;37913;48.370;10.930;2023-04-24T01:37:15;93.28;;;35.67;;
13255;SDS011;37913;48.370;10.930;2023-04-24T01:39:43;76.93;;;33.13;;
13255;SDS011;37913;48.370;10.930;2023-04-24T01:42:10;87.95;;;35.53;;
13255;SDS011;37913;48.370;10.930;2023-04-24T01:44:39;71.25;;;32.15;;
13255;SDS011;37913;48.370;10.930;2023-04-24T01:47:07;75.13;;;32.80;;
13255;SDS011;37913;48.370;10.930;2023-04-24T01:49:34;78.18;;;33.33;;
13255;SDS011;37913;48.370;10.930;2023-04-24T01:52:01;76.85;;;32.78;;
13255;SDS011;37913;48.370;10.930;2023-04-24T01:54:28;77.47;;;32.70;;
13255;SDS011;37913;48.370;10.930;2023-04-24T01:56:56;72.47;;;31.95;;
13255;SDS011;37913;48.370;10.930;2023-04-24T01:59:23;74.72;;;32.45;;
13255;SDS011;37913;48.370;10.930;2023-04-24T02:01:54;77.90;;;33.13;;
13255;SDS011;37913;48.370;10.930;2023-04-24T02:04:21;77.55;;;33.05;;
13255;SDS011;37913;48.370;10.930;2023-04-24T02:06:48;72.55;;;31.83;;
13255;SDS011;37913;48.370;10.930;2023-04-24T02:09:15;74.85;;;32.50;;
13255;SDS011;37913;48.370;10.930;2023-04-24T02:11:41;73.63;;;32.33;;
13255;SDS011;37913;48.370;10.930;2023-04-24T02:14:10;76.13;;;32.53;;
13255;SDS011;37913;48.370;10.930;2023-04-24T02:16:37;73.75;;;32.15;;
13255;SDS011;37913;48.370;10.930;2023-04-24T02:19:04;80.20;;;33.53;;
13255;SDS011;37913;48.370;10.930;2023-04-24T02:21:31;79.70;;;33.30;;
13255;SDS011;37913;48.370;10.930;2023-04-24T02:23:58;75.35;;;32.63;;
13255;SDS011;37913;48.370;10.930;2023-04-24T02:26:25;64.78;;;30.33;;
13255;SDS011;37913;48.370;10.930;2023-04-24T02:28:52;69.32;;;31.73;;
13255;SDS011;37913;48.370;10.930;2023-04-24T02:31:20;74.72;;;32.20;;
13255;SDS011;37913;48.370;10.930;2023-04-24T02:33:47;76.57;;;32.88;;
13255;SDS011;37913;48.370;10.930;2023-04-24T02:36:14;78.15;;;33.03;;
13255;SDS011;37913;48.370;10.930;2023-04-24T02:38:41;76.25;;;32.83;;
13255;SDS011;37913;48.370;10.930;2023-04-24T02:41:07;79.30;;;32.97;;
13255;SDS011;37913;48.370;10.930;2023-04-24T02:43:34;78.80;;;33.28;;
13255;SDS011;37913;48.370;10.930;2023-04-24T02:46:01;70.28;;;31.45;;
13255;SDS011;37913;48.370;10.930;2023-04-24T02:48:29;74.97;;;32.55;;
13255;SDS011;37913;48.370;10.930;2023-04-24T02:50:56;72.00;;;31.88;;
13255;SDS011;37913;48.370;10.930;2023-04-24T02:53:23;63.28;;;30.15;;
13255;SDS011;37913;48.370;10.930;2023-04-24T02:55:50;77.82;;;33.13;;
13255;SDS011;37913;48.370;10.930;2023-04-24T02:58:17;76.57;;;32.67;;
13255;SDS011;37913;48.370;10.930;2023-04-24T03:00:45;74.68;;;32.22;;
13255;SDS011;37913;48.370;10.930;2023-04-24T03:03:12;83.50;;;34.80;;
13255;SDS011;37913;48.370;10.930;2023-04-24T03:05:41;79.45;;;33.30;;
13255;SDS011;37913;48.370;10.930;2023-04-24T03:08:08;73.80;;;32.22;;
13255;SDS011;37913;48.370;10.930;2023-04-24T03:10:35;76.18;;;32.75;;
13255;SDS011;37913;48.370;10.930;2023-04-24T03:13:02;74.55;;;32.55;;
13255;SDS011;37913;48.370;10.930;2023-04-24T03:15:29;76.03;;;32.85;;
13255;SDS011;37913;48.370;10.930;2023-04-24T03:17:56;73.18;;;32.25;;
13255;SDS011;37913;48.370;10.930;2023-04-24T03:20:23;79.35;;;33.35;;
13255;SDS011;37913;48.370;10.930;2023-04-24T03:22:51;81.70;;;34.00;;
13255;SDS011;37913;48.370;10.930;2023-04-24T03:25:18;82.97;;;33.65;;
13255;SDS011;37913;48.370;10.930;2023-04-24T03:27:45;77.60;;;33.28;;
13255;SDS011;37913;48.370;10.930;2023-04-24T03:30:12;78.80;;;33.40;;
13255;SDS011;37913;48.370;10.930;2023-04-24T03:32:39;71.38;;;31.40;;
13255;SDS011;37913;48.370;10.930;2023-04-24T03:35:06;80.43;;;33.45;;
13255;SDS011;37913;48.370;10.930;2023-04-24T03:37:33;75.40;;;32.65;;
13255;SDS011;37913;48.370;10.930;2023-04-24T03:40:02;75.25;;;32.72;;
13255;SDS011;37913;48.370;10.930;2023-04-24T03:42:31;73.60;;;32.10;;
13255;SDS011;37913;48.370;10.930;2023-04-24T03:44:57;95.25;;;35.90;;
13255;SDS011;37913;48.370;10.930;2023-04-24T03:47:24;75.15;;;32.42;;
13255;SDS011;37913;48.370;10.930;2023-04-24T03:49:51;78.95;;;33.30;;
13255;SDS011;37913;48.370;10.930;2023-04-24T03:52:19;75.15;;;32.60;;
13255;SDS011;37913;48.370;10.930;2023-04-24T03:54:46;84.97;;;33.83;;
13255;SDS011;37913;48.370;10.930;2023-04-24T03:57:14;81.63;;;34.03;;
13255;SDS011;37913;48.370;10.930;2023-04-24T03:59:41;84.88;;;34.15;;
13255;SDS011;37913;48.370;10.930;2023-04-24T04:02:08;75.22;;;32.30;;
13255;SDS011;37913;48.370;10.930;2023-04-24T04:04:35;75.70;;;32.35;;
13255;SDS011;37913;48.370;10.930;2023-04-24T04:07:02;69.10;;;31.10;;
13255;SDS011;37913;48.370;10.930;2023-04-24T04:09:30;75.28;;;32.35;;
13255;SDS011;37913;48.370;10.930;2023-04-24T04:11:57;73.90;;;32.28;;
13255;SDS011;37913;48.370;10.930;2023-04-24T04:14:26;83.30;;;34.05;;
13255;SDS011;37913;48.370;10.930;2023-04-24T04:16:53;77.35;;;32.85;;
13255;SDS011;37913;48.370;10.930;2023-04-24T04:19:20;77.15;;;32.97;;
13255;SDS011;37913;48.370;10.930;2023-04-24T04:21:47;78.72;;;33.20;;
13255;SDS011;37913;48.370;10.930;2023-04-24T04:24:18;87.15;;;34.15;;
13255;SDS011;37913;48.370;10.930;2023-04-24T04:26:45;74.63;;;32.17;;
13255;SDS011;37913;48.370;10.930;2023-04-24T04:29:12;77.72;;;32.95;;
13255;SDS011;37913;48.370;10.930;2023-04-24T04:31:41;78.90;;;33.30;;
13255;SDS011;37913;48.370;10.930;2023-04-24T04:34:08;72.38;;;31.92;;
13255;SDS011;37913;48.370;10.930;2023-04-24T04:36:36;76.57;;;32.60;;
13255;SDS011;37913;48.370;10.930;2023-04-24T04:39:05;82.30;;;33.72;;
13255;SDS011;37913;48.370;10.930;2023-04-24T04:41:32;83.28;;;34.25;;
13255;SDS011;37913;48.370;10.930;2023-04-24T04:44:00;73.47;;;32.25;;
13255;SDS011;37913;48.370;10.930;2023-04-24T04:46:29;89.38;;;35.33;;
13255;SDS011;37913;48.370;10.930;2023-04-24T04:48:59;89.15;;;35.13;;
13255;SDS011;37913;48.370;10.930;2023-04-24T04:51:27;79.05;;;33.38;;
13255;SDS011;37913;48.370;10.930;2023-04-24T04:53:55;78.55;;;33.28;;
13255;SDS011;37913;48.370;10.930;2023-04-24T04:56:22;82.20;;;33.92;;
13255;SDS011;37913;48.370;10.930;2023-04-24T04:58:49;81.85;;;33.95;;
13255;SDS011;37913;48.370;10.930;2023-04-24T05:01:15;77.40;;;32.83;;
13255;SDS011;37913;48.370;10.930;2023-04-24T05:03:42;77.43;;;33.22;;
13255;SDS011;37913;48.370;10.930;2023-04-24T05:06:11;76.28;;;32.67;;
13255;SDS011;37913;48.370;10.930;2023-04-24T05:08:37;76.35;;;32.78;;
13255;SDS011;37913;48.370;10.930;2023-04-24T05:11:04;84.25;;;34.28;;
13255;SDS011;37913;48.370;10.930;2023-04-24T05:13:32;82.82;;;34.03;;
13255;SDS011;37913;48.370;10.930;2023-04-24T05:15:59;85.32;;;34.47;;
13255;SDS011;37913;48.370;10.930;2023-04-24T05:18:26;84.93;;;34.55;;
13255;SDS011;37913;48.370;10.930;2023-04-24T05:20:53;69.57;;;31.38;;
13255;SDS011;37913;48.370;10.930;2023-04-24T05:23:22;76.80;;;32.80;;
13255;SDS011;37913;48.370;10.930;2023-04-24T05:25:48;76.85;;;32.72;;
13255;SDS011;37913;48.370;10.930;2023-04-24T05:28:15;79.25;;;33.30;;
13255;SDS011;37913;48.370;10.930;2023-04-24T05:30:42;94.30;;;36.35;;
13255;SDS011;37913;48.370;10.930;2023-04-24T05:33:09;83.90;;;34.22;;
13255;SDS011;37913;48.370;10.930;2023-04-24T05:35:36;83.10;;;34.10;;
13255;SDS011;37913;48.370;10.930;2023-04-24T05:38:03;79.10;;;33.15;;
13255;SDS011;37913;48.370;10.930;2023-04-24T05:40:31;77.65;;;33.20;;
13255;SDS011;37913;48.370;10.930;2023-04-24T05:42:58;79.72;;;33.30;;
13255;SDS011;37913;48.370;10.930;2023-04-24T05:45:25;81.50;;;34.08;;
13255;SDS011;37913;48.370;10.930;2023-04-24T05:47:52;74.88;;;32.55;;
13255;SDS011;37913;48.370;10.930;2023-04-24T05:50:20;75.68;;;32.65;;
13255;SDS011;37913;48.370;10.930;2023-04-24T05:52:47;79.35;;;33.67;;
13255;SDS011;37913;48.370;10.930;2023-04-24T05:55:14;77.47;;;32.92;;
13255;SDS011;37913;48.370;10.930;2023-04-24T05:57:44;71.25;;;33.05;;
13255;SDS011;37913;48.370;10.930;2023-04-24T06:00:12;82.22;;;34.10;;
13255;SDS011;37913;48.370;10.930;2023-04-24T06:02:39;81.38;;;33.85;;
13255;SDS011;37913;48.370;10.930;2023-04-24T06:05:06;94.60;;;36.97;;
13255;SDS011;37913;48.370;10.930;2023-04-24T06:07:34;85.53;;;34.83;;
13255;SDS011;37913;48.370;10.930;2023-04-24T06:10:01;79.00;;;33.42;;
13255;SDS011;37913;48.370;10.930;2023-04-24T06:12:28;87.22;;;34.88;;
13255;SDS011;37913;48.370;10.930;2023-04-24T06:14:56;96.07;;;36.58;;
13255;SDS011;37913;48.370;10.930;2023-04-24T06:17:23;81.45;;;34.05;;
13255;SDS011;37913;48.370;10.930;2023-04-24T06:19:50;84.35;;;34.40;;
13255;SDS011;37913;48.370;10.930;2023-04-24T06:22:17;81.38;;;33.92;;
13255;SDS011;37913;48.370;10.930;2023-04-24T06:24:44;91.40;;;35.92;;
13255;SDS011;37913;48.370;10.930;2023-04-24T06:27:12;67.82;;;31.35;;
13255;SDS011;37913;48.370;10.930;2023-04-24T06:29:39;86.95;;;34.90;;
13255;SDS011;37913;48.370;10.930;2023-04-24T06:32:07;76.65;;;32.75;;
13255;SDS011;37913;48.370;10.930;2023-04-24T06:34:34;77.22;;;33.13;;
13255;SDS011;37913;48.370;10.930;2023-04-24T06:37:01;73.78;;;32.53;;
13255;SDS011;37913;48.370;10.930;2023-04-24T06:39:28;73.07;;;32.40;;
13255;SDS011;37913;48.370;10.930;2023-04-24T06:41:55;87.57;;;35.80;;
13255;SDS011;37913;48.370;10.930;2023-04-24T06:44:22;68.80;;;31.42;;
13255;SDS011;37913;48.370;10.930;2023-04-24T06:46:50;83.43;;;34.47;;
13255;SDS011;37913;48.370;10.930;2023-04-24T06:49:19;77.35;;;33.33;;
13255;SDS011;37913;48.370;10.930;2023-04-24T06:51:46;74.38;;;32.42;;
13255;SDS011;37913;48.370;10.930;2023-04-24T06:54:13;80.72;;;33.92;;
13255;SDS011;37913;48.370;10.930;2023-04-24T06:56:41;70.00;;;31.83;;
13255;SDS011;37913;48.370;10.930;2023-04-24T06:59:10;76.40;;;32.95;;
13255;SDS011;37913;48.370;10.930;2023-04-24T07:01:38;75.82;;;32.75;;
13255;SDS011;37913;48.370;10.930;2023-04-24T07:04:05;65.13;;;30.90;;
13255;SDS011;37913;48.370;10.930;2023-04-24T07:06:34;76.80;;;33.45;;
13255;SDS011;37913;48.370;10.930;2023-04-24T07:09:02;74.60;;;33.30;;
13255;SDS011;37913;48.370;10.930;2023-04-24T07:11:29;74.72;;;32.90;;
13255;SDS011;37913;48.370;10.930;2023-04-24T07:13:56;78.00;;;33.33;;
13255;SDS011;37913;48.370;10.930;2023-04-24T07:16:24;78.43;;;33.83;;
13255;SDS011;37913;48.370;10.930;2023-04-24T07:18:52;76.78;;;33.13;;
13255;SDS011;37913;48.370;10.930;2023-04-24T07:21:19;73.82;;;32.80;;
13255;SDS011;37913;48.370;10.930;2023-04-24T07:23:47;77.57;;;33.28;;
13255;SDS011;37913;48.370;10.930;2023-04-24T07:26:14;79.88;;;33.97;;
13255;SDS011;37913;48.370;10.930;2023-04-24T07:28:41;76.78;;;33.72;;
13255;SDS011;37913;48.370;10.930;2023-04-24T07:31:08;79.65;;;33.85;;
13255;SDS011;37913;48.370;10.930;2023-04-24T07:33:35;74.57;;;33.05;;
13255;SDS011;37913;48.370;10.930;2023-04-24T07:36:02;80.25;;;33.88;;
13255;SDS011;37913;48.370;10.930;2023-04-24T07:38:30;83.97;;;34.78;;
13255;SDS011;37913;48.370;10.930;2023-04-24T07:40:59;66.05;;;31.02;;
13255;SDS011;37913;48.370;10.930;2023-04-24T07:43:26;83.85;;;34.55;;
13255;SDS011;37913;48.370;10.930;2023-04-24T07:45:53;83.88;;;34.25;;
13255;SDS011;37913;48.370;10.930;2023-04-24T07:48:20;74.50;;;32.45;;
13255;SDS011;37913;48.370;10.930;2023-04-24T07:50:47;74.38;;;32.58;;
13255;SDS011;37913;48.370;10.930;2023-04-24T07:53:14;80.22;;;33.88;;
13255;SDS011;37913;48.370;10.930;2023-04-24T07:55:41;75.35;;;32.75;;
13255;SDS011;37913;48.370;10.930;2023-04-24T07:58:09;78.13;;;33.33;;
13255;SDS011;37913;48.370;10.930;2023-04-24T08:00:36;80.10;;;33.80;;
13255;SDS011;37913;48.370;10.930;2023-04-24T08:03:03;77.40;;;33.50;;
13255;SDS011;37913;48.370;10.930;2023-04-24T08:05:30;80.57;;;34.13;;
13255;SDS011;37913;48.370;10.930;2023-04-24T08:07:58;75.20;;;33.17;;
13255;SDS011;37913;48.370;10.930;2023-04-24T08:10:25;77.63;;;33.75;;
13255;SDS011;37913;48.370;10.930;2023-04-24T08:12:52;82.18;;;34.70;;
13255;SDS011;37913;48.370;10.930;2023-04-24T08:15:21;91.03;;;36.28;;
13255;SDS011;37913;48.370;10.930;2023-04-24T08:17:49;77.32;;;33.65;;
13255;SDS011;37913;48.370;10.930;2023-04-24T08:20:17;85.22;;;35.60;;
13255;SDS011;37913;48.370;10.930;2023-04-24T08:22:44;86.03;;;36.03;;
13255;SDS011;37913;48.370;10.930;2023-04-24T08:25:12;80.53;;;34.65;;
13255;SDS011;37913;48.370;10.930;2023-04-24T08:27:39;80.57;;;34.20;;
13255;SDS011;37913;48.370;10.930;2023-04-24T08:30:07;93.20;;;37.47;;
13255;SDS011;37913;48.370;10.930;2023-04-24T08:32:35;99.82;;;38.47;;
13255;SDS011;37913;48.370;10.930;2023-04-24T08:35:02;83.72;;;35.58;;
13255;SDS011;37913;48.370;10.930;2023-04-24T08:37:30;80.20;;;35.25;;
13255;SDS011;37913;48.370;10.930;2023-04-24T08:39:57;84.03;;;36.53;;
13255;SDS011;37913;48.370;10.930;2023-04-24T08:42:24;84.53;;;37.10;;
13255;SDS011;37913;48.370;10.930;2023-04-24T08:44:54;90.30;;;38.45;;
13255;SDS011;37913;48.370;10.930;2023-04-24T08:47:23;83.35;;;37.25;;
13255;SDS011;37913;48.370;10.930;2023-04-24T08:49:53;80.45;;;36.88;;
13255;SDS011;37913;48.370;10.930;2023-04-24T08:52:21;83.38;;;37.22;;
13255;SDS011;37913;48.370;10.930;2023-04-24T08:54:49;82.30;;;36.20;;
13255;SDS011;37913;48.370;10.930;2023-04-24T08:57:15;92.20;;;38.80;;
13255;SDS011;37913;48.370;10.930;2023-04-24T08:59:43;83.13;;;36.80;;
13255;SDS011;37913;48.370;10.930;2023-04-24T09:02:10;78.43;;;35.78;;
13255;SDS011;37913;48.370;10.930;2023-04-24T09:04:38;86.88;;;38.10;;
13255;SDS011;37913;48.370;10.930;2023-04-24T09:07:09;85.40;;;38.50;;
13255;SDS011;37913;48.370;10.930;2023-04-24T09:09:38;82.40;;;38.38;;
13255;SDS011;37913;48.370;10.930;2023-04-24T09:12:07;86.88;;;39.13;;
13255;SDS011;37913;48.370;10.930;2023-04-24T09:14:35;80.78;;;38.30;;
13255;SDS011;37913;48.370;10.930;2023-04-24T09:17:04;87.63;;;39.20;;
13255;SDS011;37913;48.370;10.930;2023-04-24T09:19:32;87.93;;;39.22;;
13255;SDS011;37913;48.370;10.930;2023-04-24T09:21:59;84.10;;;38.50;;
13255;SDS011;37913;48.370;10.930;2023-04-24T09:24:32;83.63;;;38.13;;
13255;SDS011;37913;48.370;10.930;2023-04-24T09:27:01;88.75;;;39.28;;
13255;SDS011;37913;48.370;10.930;2023-04-24T09:29:28;95.43;;;40.97;;
13255;SDS011;37913;48.370;10.930;2023-04-24T09:31:57;97.43;;;41.53;;
13255;SDS011;37913;48.370;10.930;2023-04-24T09:34:26;89.90;;;39.50;;
13255;SDS011;37913;48.370;10.930;2023-04-24T09:36:53;90.65;;;38.72;;
13255;SDS011;37913;48.370;10.930;2023-04-24T09:39:21;102.82;;;41.70;;
13255;SDS011;37913;48.370;10.930;2023-04-24T09:41:49;85.82;;;37.95;;
13255;SDS011;37913;48.370;10.930;2023-04-24T09:44:19;86.82;;;38.05;;
13255;SDS011;37913;48.370;10.930;2023-04-24T09:46:49;77.40;;;36.47;;
13255;SDS011;37913;48.370;10.930;2023-04-24T09:49:21;81.00;;;37.45;;
13255;SDS011;37913;48.370;10.930;2023-04-24T09:51:50;85.28;;;38.80;;
13255;SDS011;37913;48.370;10.930;2023-04-24T09:54:18;95.78;;;40.85;;
13255;SDS011;37913;48.370;10.930;2023-04-24T09:56:46;87.18;;;39.35;;
13255;SDS011;37913;48.370;10.930;2023-04-24T09:59:16;90.32;;;39.50;;
13255;SDS011;37913;48.370;10.930;2023-04-24T10:01:46;91.88;;;39.70;;
13255;SDS011;37913;48.370;10.930;2023-04-24T10:04:15;84.85;;;38.35;;
13255;SDS011;37913;48.370;10.930;2023-04-24T10:06:43;84.53;;;38.03;;
13255;SDS011;37913;48.370;10.930;2023-04-24T10:09:11;88.13;;;38.90;;
13255;SDS011;37913;48.370;10.930;2023-04-24T10:11:41;91.85;;;39.45;;
13255;SDS011;37913;48.370;10.930;2023-04-24T10:14:11;86.10;;;38.72;;
13255;SDS011;37913;48.370;10.930;2023-04-24T10:16:39;80.35;;;37.25;;
13255;SDS011;37913;48.370;10.930;2023-04-24T10:19:07;85.30;;;37.60;;
13255;SDS011;37913;48.370;10.930;2023-04-24T10:21:34;91.10;;;38.38;;
13255;SDS011;37913;48.370;10.930;2023-04-24T10:24:03;84.53;;;36.35;;
13255;SDS011;37913;48.370;10.930;2023-04-24T10:26:32;94.97;;;38.70;;
13255;SDS011;37913;48.370;10.930;2023-04-24T10:29:01;88.60;;;37.03;;
13255;SDS011;37913;48.370;10.930;2023-04-24T10:31:32;83.55;;;35.90;;
13255;SDS011;37913;48.370;10.930;2023-04-24T10:34:00;86.00;;;36.17;;
13255;SDS011;37913;48.370;10.930;2023-04-24T10:36:28;83.40;;;35.58;;
13255;SDS011;37913;48.370;10.930;2023-04-24T10:38:59;79.63;;;34.35;;
13255;SDS011;37913;48.370;10.930;2023-04-24T10:41:29;82.85;;;34.92;;
13255;SDS011;37913;48.370;10.930;2023-04-24T10:44:07;80.80;;;34.47;;
13255;SDS011;37913;48.370;10.930;2023-04-24T10:46:36;80.78;;;34.25;;
13255;SDS011;37913;48.370;10.930;2023-04-24T10:49:05;84.43;;;35.00;;
13255;SDS011;37913;48.370;10.930;2023-04-24T10:51:47;84.13;;;34.97;;
13255;SDS011;37913;48.370;10.930;2023-04-24T10:54:25;83.00;;;34.42;;
13255;SDS011;37913;48.370;10.930;2023-04-24T10:56:53;78.93;;;34.13;;
13255;SDS011;37913;48.370;10.930;2023-04-24T11:00:09;77.75;;;34.28;;
13255;SDS011;37913;48.370;10.930;2023-04-24T11:02:41;79.40;;;35.33;;
13255;SDS011;37913;48.370;10.930;2023-04-24T11:05:14;86.22;;;38.42;;
13255;SDS011;37913;48.370;10.930;2023-04-24T11:10:40;102.32;;;44.95;;
13255;SDS011;37913;48.370;10.930;2023-04-24T11:13:09;97.85;;;46.20;;
13255;SDS011;37913;48.370;10.930;2023-04-24T11:15:40;89.70;;;45.92;;
13255;SDS011;37913;48.370;10.930;2023-04-24T11:18:13;101.53;;;47.10;;
13255;SDS011;37913;48.370;10.930;2023-04-24T11:20:42;90.40;;;43.63;;
13255;SDS011;37913;48.370;10.930;2023-04-24T11:23:11;102.97;;;45.63;;
13255;SDS011;37913;48.370;10.930;2023-04-24T11:25:39;98.72;;;45.22;;
13255;SDS011;37913;48.370;10.930;2023-04-24T11:28:07;90.22;;;43.50;;
13255;SDS011;37913;48.370;10.930;2023-04-24T11:30:40;91.22;;;44.85;;
13255;SDS011;37913;48.370;10.930;2023-04-24T11:33:07;83.70;;;42.35;;
13255;SDS011;37913;48.370;10.930;2023-04-24T11:35:39;89.53;;;44.90;;
13255;SDS011;37913;48.370;10.930;2023-04-24T11:38:06;96.60;;;47.80;;
13255;SDS011;37913;48.370;10.930;2023-04-24T11:40:33;93.40;;;49.10;;
13255;SDS011;37913;48.370;10.930;2023-04-24T11:43:00;89.70;;;46.15;;
13255;SDS011;37913;48.370;10.930;2023-04-24T11:45:29;89.93;;;46.28;;
13255;SDS011;37913;48.370;10.930;2023-04-24T11:47:56;85.40;;;45.50;;
13255;SDS011;37913;48.370;10.930;2023-04-24T11:50:24;89.57;;;46.25;;
13255;SDS011;37913;48.370;10.930;2023-04-24T11:52:54;80.80;;;43.80;;
13255;SDS011;37913;48.370;10.930;2023-04-24T11:55:25;86.72;;;44.75;;
13255;SDS011;37913;48.370;10.930;2023-04-24T11:57:54;89.82;;;44.20;;
13255;SDS011;37913;48.370;10.930;2023-04-24T12:00:23;89.25;;;42.50;;
13255;SDS011;37913;48.370;10.930;2023-04-24T12:03:02;87.97;;;41.25;;
13255;SDS011;37913;48.370;10.930;2023-04-24T12:05:31;89.07;;;39.75;;
13255;SDS011;37913;48.370;10.930;2023-04-24T12:08:00;86.13;;;39.42;;
13255;SDS011;37913;48.370;10.930;2023-04-24T12:10:28;80.43;;;39.50;;
13255;SDS011;37913;48.370;10.930;2023-04-24T12:12:57;97.30;;;45.08;;
13255;SDS011;37913;48.370;10.930;2023-04-24T12:15:25;84.55;;;43.88;;
13255;SDS011;37913;48.370;10.930;2023-04-24T12:17:53;103.57;;;49.78;;
13255;SDS011;37913;48.370;10.930;2023-04-24T12:20:23;87.38;;;47.85;;
13255;SDS011;37913;48.370;10.930;2023-04-24T12:22:51;80.22;;;49.63;;
13255;SDS011;37913;48.370;10.930;2023-04-24T12:25:23;92.97;;;52.70;;
13255;SDS011;37913;48.370;10.930;2023-04-24T12:27:54;85.00;;;51.03;;
13255;SDS011;37913;48.370;10.930;2023-04-24T12:30:38;78.65;;;47.42;;
13255;SDS011;37913;48.370;10.930;2023-04-24T12:33:06;88.10;;;49.90;;
13255;SDS011;37913;48.370;10.930;2023-04-24T12:35:33;86.28;;;50.35;;
13255;SDS011;37913;48.370;10.930;2023-04-24T12:38:07;97.32;;;55.15;;
13255;SDS011;37913;48.370;10.930;2023-04-24T12:40:37;92.40;;;55.42;;
13255;SDS011;37913;48.370;10.930;2023-04-24T12:43:12;90.40;;;57.50;;
13255;SDS011;37913;48.370;10.930;2023-04-24T12:45:40;94.40;;;59.88;;
13255;SDS011;37913;48.370;10.930;2023-04-24T12:48:07;113.15;;;65.45;;
13255;SDS011;37913;48.370;10.930;2023-04-24T12:50:34;95.88;;;58.42;;
13255;SDS011;37913;48.370;10.930;2023-04-24T12:53:01;94.15;;;56.70;;
13255;SDS011;37913;48.370;10.930;2023-04-24T12:55:28;98.68;;;54.22;;
13255;SDS011;37913;48.370;10.930;2023-04-24T12:57:56;94.22;;;50.63;;
13255;SDS011;37913;48.370;10.930;2023-04-24T13:00:23;78.00;;;44.47;;
13255;SDS011;37913;48.370;10.930;2023-04-24T13:02:50;88.05;;;44.00;;
13255;SDS011;37913;48.370;10.930;2023-04-24T13:05:17;85.60;;;41.92;;
13255;SDS011;37913;48.370;10.930;2023-04-24T13:07:44;87.72;;;41.47;;
13255;SDS011;37913;48.370;10.930;2023-04-24T13:10:12;99.43;;;42.70;;
13255;SDS011;37913;48.370;10.930;2023-04-24T13:12:39;89.75;;;40.30;;
13255;SDS011;37913;48.370;10.930;2023-04-24T13:15:08;86.53;;;40.80;;
13255;SDS011;37913;48.370;10.930;2023-04-24T13:17:35;93.32;;;43.20;;
13255;SDS011;37913;48.370;10.930;2023-04-24T13:20:04;86.47;;;42.42;;
13255;SDS011;37913;48.370;10.930;2023-04-24T13:22:32;96.47;;;45.28;;
13255;SDS011;37913;48.370;10.930;2023-04-24T13:24:59;102.65;;;47.53;;
13255;SDS011;37913;48.370;10.930;2023-04-24T13:27:26;87.57;;;46.83;;
13255;SDS011;37913;48.370;10.930;2023-04-24T13:29:53;91.88;;;48.17;;
13255;SDS011;37913;48.370;10.930;2023-04-24T13:32:21;88.15;;;45.83;;
13255;SDS011;37913;48.370;10.930;2023-04-24T13:34:48;100.05;;;48.08;;
13255;SDS011;37913;48.370;10.930;2023-04-24T13:37:15;87.18;;;44.78;;
13255;SDS011;37913;48.370;10.930;2023-04-24T13:39:42;96.22;;;44.65;;
13255;SDS011;37913;48.370;10.930;2023-04-24T13:42:09;91.60;;;44.00;;
13255;SDS011;37913;48.370;10.930;2023-04-24T13:44:36;100.75;;;46.20;;
13255;SDS011;37913;48.370;10.930;2023-04-24T13:47:03;87.80;;;42.08;;
13255;SDS011;37913;48.370;10.930;2023-04-24T13:49:32;85.68;;;41.60;;
13255;SDS011;37913;48.370;10.930;2023-04-24T13:51:59;82.18;;;41.05;;
13255;SDS011;37913;48.370;10.930;2023-04-24T13:54:26;86.53;;;40.97;;
13255;SDS011;37913;48.370;10.930;2023-04-24T13:56:52;87.05;;;42.00;;
13255;SDS011;37913;48.370;10.930;2023-04-24T13:59:19;101.10;;;43.17;;
13255;SDS011;37913;48.370;10.930;2023-04-24T14:01:47;91.65;;;41.53;;
13255;SDS011;37913;48.370;10.930;2023-04-24T14:04:14;85.93;;;39.88;;
13255;SDS011;37913;48.370;10.930;2023-04-24T14:06:42;88.10;;;40.60;;
13255;SDS011;37913;48.370;10.930;2023-04-24T14:09:10;94.55;;;41.15;;
13255;SDS011;37913;48.370;10.930;2023-04-24T14:11:38;99.90;;;42.53;;
13255;SDS011;37913;48.370;10.930;2023-04-24T14:14:05;101.10;;;42.72;;
13255;SDS011;37913;48.370;10.930;2023-04-24T14:16:32;78.55;;;38.47;;